Delta Virtual Airport Information Service

New York Newark Liberty International Airport

ICAO: KEWR Country: United States
Latitude: 40.6925 Longitude: -74.1686
Latest Arrival : UAL1022 (MPTO-KEWR) Latest Departure : FDX1026 (1A) (KEWR-KLAX)


WX CaptureLIVE
Data provided by noaa.gov | Fetched at 21:33:17

METAR : KEWR 240151Z 15004KT 10SM OVC007 17/16 A3006 RMK AO2 SLP179 T01720156 $

TAF : KEWR 240106Z 2401/2506 14005KT P6SM OVC008 FM240200 17004KT P6SM OVC008 FM240700 22004KT 3SM -DZ BR SCT003 OVC006 TEMPO 2407/2411 1 1/2SM -DZ BR BKN003 FM241500 26006KT P6SM SCT015 BKN025 FM241900 31007KT P6SM BKN035 FM242100 33009G15KT P6SM BKN045 FM242300 34010G16KT P6SM SCT080


Runway Data for KEWR
Data provided by openaviationdata.com

Runway ID Mag Var Hdg Length Elevation Surface ILS Freq ILS Id ILS Slope
04L -13 38° 11003 ft 18 ft Asphalt 110.75 IEWR 3
04R -13 38° 9983 ft 18 ft Asphalt 108.7 IEZA 3
11 -13 108° 6790 ft 18 ft Asphalt 109.15 IGPR 3
22L -13 218° 9983 ft 18 ft Asphalt 108.7 ILSQ 3
22R -13 218° 11003 ft 18 ft Asphalt 110.75 IJNN 3
29 -13 288° 6790 ft 18 ft Asphalt -- -- --

New York Newark Liberty International Airport, United States
Use only for reference purposes



Not for navigational purposes.